TimeEDT,TemperatureF,Dew PointF,Humidity,Sea Level PressureIn,VisibilityMPH,Wind Direction,Wind SpeedMPH,Gust SpeedMPH,PrecipitationIn,Events,Conditions,WindDirDegrees,DateUTC
12:56 AM,61.0,50.0,67,30.09,10.0,NE,4.6,-,N/A,,Overcast,50,2013-10-12 04:56:00
1:56 AM,60.1,46.9,62,30.10,10.0,NNE,6.9,-,N/A,,Clear,20,2013-10-12 05:56:00
2:56 AM,57.9,42.1,56,30.10,10.0,NNE,5.8,-,N/A,,Scattered Clouds,30,2013-10-12 06:56:00
3:56 AM,59.0,37.0,44,30.11,10.0,NNE,9.2,-,N/A,,Mostly Cloudy,30,2013-10-12 07:56:00
4:56 AM,57.9,37.9,47,30.12,10.0,NE,5.8,-,N/A,,Overcast,40,2013-10-12 08:56:00
5:56 AM,57.9,39.0,49,30.12,10.0,NNE,10.4,-,N/A,,Scattered Clouds,30,2013-10-12 09:56:00
6:56 AM,57.0,39.0,51,30.13,10.0,NNE,5.8,-,N/A,,Mostly Cloudy,30,2013-10-12 10:56:00
7:56 AM,57.0,42.1,57,30.15,10.0,Variable,4.6,-,N/A,,Scattered Clouds,0,2013-10-12 11:56:00
8:56 AM,60.1,42.1,51,30.17,10.0,NE,8.1,16.1,N/A,,Scattered Clouds,50,2013-10-12 12:56:00
9:56 AM,64.0,44.1,48,30.17,10.0,ENE,5.8,-,N/A,,Scattered Clouds,60,2013-10-12 13:56:00
10:56 AM,66.0,46.0,48,30.19,10.0,Variable,5.8,17.3,N/A,,Scattered Clouds,0,2013-10-12 14:56:00
11:56 AM,66.9,42.1,40,30.20,10.0,East,10.4,-,N/A,,Scattered Clouds,100,2013-10-12 15:56:00
12:56 PM,68.0,37.9,33,30.19,10.0,East,10.4,-,N/A,,Overcast,90,2013-10-12 16:56:00
1:56 PM,71.1,41.0,34,30.18,10.0,ESE,6.9,23.0,N/A,,Scattered Clouds,110,2013-10-12 17:56:00
2:56 PM,71.1,48.0,44,30.18,10.0,East,8.1,-,N/A,,Partly Cloudy,100,2013-10-12 18:56:00
3:56 PM,68.0,52.0,56,30.19,10.0,East,12.7,18.4,N/A,,Scattered Clouds,100,2013-10-12 19:56:00
4:56 PM,66.0,55.0,68,30.22,10.0,East,11.5,20.7,N/A,,Scattered Clouds,90,2013-10-12 20:56:00
5:56 PM,63.0,55.9,78,30.23,9.0,East,8.1,-,N/A,,Scattered Clouds,90,2013-10-12 21:56:00
6:29 PM,62.6,55.4,77,30.24,9.0,East,5.8,16.1,N/A,,Mostly Cloudy,100,2013-10-12 22:29:00
6:56 PM,62.1,55.9,80,30.24,10.0,East,9.2,16.1,N/A,,Mostly Cloudy,80,2013-10-12 22:56:00
7:56 PM,62.1,55.0,78,30.26,10.0,NE,10.4,-,N/A,,Mostly Cloudy,50,2013-10-12 23:56:00
8:56 PM,61.0,53.1,75,30.27,10.0,ENE,9.2,-,N/A,,Mostly Cloudy,70,2013-10-13 00:56:00
9:56 PM,59.0,52.0,78,30.29,10.0,ENE,5.8,-,N/A,,Mostly Cloudy,70,2013-10-13 01:56:00
10:56 PM,59.0,51.1,75,30.30,10.0,East,11.5,18.4,N/A,,Overcast,80,2013-10-13 02:56:00
11:56 PM,57.9,48.9,72,30.30,10.0,ENE,10.4,19.6,N/A,,Mostly Cloudy,70,2013-10-13 03:56:00